createdAt,value
2023-02-23T00:08:13.020Z,-2.18
2023-02-23T00:18:18.617Z,-2.20
2023-02-23T00:28:24.266Z,-2.22
2023-02-23T00:38:35.016Z,-2.31
2023-02-23T00:48:40.628Z,-2.42
2023-02-23T00:58:46.356Z,-2.63
2023-02-23T01:08:56.870Z,-2.91
2023-02-23T01:19:05.075Z,-3.09
2023-02-23T01:29:12.920Z,-3.19
2023-02-23T01:39:20.891Z,-3.28
2023-02-23T01:49:30.506Z,-3.34
2023-02-23T01:59:40.252Z,-3.42
2023-02-23T02:10:08.437Z,-3.48
2023-02-23T02:20:38.843Z,-3.55
2023-02-23T02:31:25.402Z,-3.64
2023-02-23T02:41:42.480Z,-3.69
2023-02-23T02:51:55.406Z,-3.76
2023-02-23T03:02:18.892Z,-3.81
2023-02-23T03:12:52.361Z,-3.85
2023-02-23T03:23:22.086Z,-3.89
2023-02-23T03:33:53.860Z,-3.94
2023-02-23T03:44:20.844Z,-3.94
2023-02-23T03:54:51.810Z,-4.00
2023-02-23T04:05:17.321Z,-4.05
2023-02-23T04:15:28.126Z,-4.10
2023-02-23T04:25:33.956Z,-4.14
2023-02-23T04:35:40.274Z,-4.20
2023-02-23T04:45:46.766Z,-4.22
2023-02-23T04:55:52.435Z,-4.22
2023-02-23T05:05:56.585Z,-4.25
2023-02-23T05:16:02.507Z,-4.27
2023-02-23T05:26:10.578Z,-4.30
2023-02-23T05:36:18.522Z,-4.23
2023-02-23T05:46:26.236Z,-4.14
2023-02-23T05:56:31.900Z,-4.05
2023-02-23T06:06:37.877Z,-3.81
2023-02-23T06:16:45.376Z,-3.46
2023-02-23T06:26:51.205Z,-3.04
2023-02-23T06:36:56.843Z,-2.58
2023-02-23T06:47:02.426Z,-2.02
2023-02-23T06:57:08.246Z,-1.59
2023-02-23T07:07:14.189Z,-1.09
2023-02-23T07:17:19.910Z,-0.23
2023-02-23T07:27:27.729Z,0.33
2023-02-23T07:44:40.941Z,1.47
2023-02-23T07:54:46.628Z,1.88
2023-02-23T08:04:54.099Z,2.32
2023-02-23T08:14:59.786Z,2.71
2023-02-23T08:25:06.212Z,3.38
2023-02-23T08:35:12.937Z,4.77
2023-02-23T08:45:19.704Z,6.92
2023-02-23T08:55:25.361Z,7.89
2023-02-23T09:05:31.022Z,9.74
2023-02-23T09:15:36.992Z,11.07
2023-02-23T09:25:44.331Z,11.63
2023-02-23T09:35:50.399Z,11.00
2023-02-23T09:46:03.841Z,8.03
2023-02-23T09:56:14.535Z,6.47
2023-02-23T10:06:21.905Z,5.73
2023-02-23T10:16:37.485Z,5.43
2023-02-23T10:26:48.429Z,5.12
2023-02-23T10:36:59.628Z,4.92
2023-02-23T10:47:12.366Z,4.94
2023-02-23T10:57:26.616Z,5.02
2023-02-23T11:07:33.999Z,5.05
2023-02-23T11:17:40.850Z,4.95
2023-02-23T11:27:51.593Z,4.96
2023-02-23T11:37:58.157Z,4.94
2023-02-23T11:48:06.157Z,5.06
2023-02-23T11:58:24.239Z,5.45
2023-02-23T12:08:40.771Z,5.96
2023-02-23T12:18:55.210Z,6.27
2023-02-23T12:29:06.816Z,6.47
2023-02-23T12:39:22.649Z,6.72
2023-02-23T12:49:37.361Z,6.68
2023-02-23T13:00:24.812Z,6.78
2023-02-23T13:10:33.616Z,6.85
2023-02-23T13:20:45.153Z,6.94
2023-02-23T13:30:51.109Z,6.98
2023-02-23T13:41:06.625Z,6.89
2023-02-23T13:51:21.579Z,6.71
2023-02-23T14:01:31.053Z,6.51
2023-02-23T14:11:47.388Z,6.44
2023-02-23T14:22:00.010Z,6.41
2023-02-23T14:32:21.278Z,6.37
2023-02-23T14:42:30.790Z,6.21
2023-02-23T14:52:41.975Z,6.03
2023-02-23T15:02:59.904Z,5.95
2023-02-23T15:13:13.198Z,5.82
2023-02-23T15:23:21.613Z,5.63
2023-02-23T15:33:30.413Z,5.43
2023-02-23T15:43:36.761Z,5.24
2023-02-23T15:53:43.242Z,4.99
2023-02-23T16:04:00.274Z,4.72
2023-02-23T16:14:15.529Z,4.44
2023-02-23T16:24:23.698Z,4.21
2023-02-23T16:34:34.269Z,4.00
2023-02-23T16:44:43.798Z,3.85
2023-02-23T16:54:54.482Z,3.73
2023-02-23T17:05:01.271Z,3.66
2023-02-23T17:15:12.338Z,3.58
2023-02-23T17:25:18.323Z,3.48
2023-02-23T17:35:24.724Z,3.34
2023-02-23T17:45:32.105Z,3.16
2023-02-23T17:55:37.741Z,3.01
2023-02-23T18:05:43.508Z,2.90
2023-02-23T18:15:54.146Z,2.82
2023-02-23T18:26:07.682Z,2.78
2023-02-23T18:36:22.633Z,2.78
2023-02-23T18:46:28.798Z,2.81
2023-02-23T18:56:34.793Z,2.85
2023-02-23T19:06:42.549Z,2.83
2023-02-23T19:16:49.144Z,2.75
2023-02-23T19:26:54.748Z,2.68
2023-02-23T19:37:00.352Z,2.62
2023-02-23T19:47:06.124Z,2.49
2023-02-23T19:57:11.766Z,2.31
2023-02-23T20:07:17.997Z,2.15
2023-02-23T20:17:23.818Z,2.03
2023-02-23T20:27:30.155Z,1.90
2023-02-23T20:37:44.589Z,1.80
2023-02-23T20:47:53.373Z,1.76
2023-02-23T20:58:02.363Z,1.71
2023-02-23T21:08:10.138Z,1.67
2023-02-23T21:18:16.253Z,1.65
2023-02-23T21:28:22.082Z,1.70
2023-02-23T21:38:28.232Z,1.80
2023-02-23T21:48:34.180Z,2.01
2023-02-23T21:58:40.895Z,2.23
2023-02-23T22:08:48.163Z,2.38
2023-02-23T22:18:53.970Z,2.53
2023-02-23T22:28:59.895Z,2.59
2023-02-23T22:39:09.966Z,2.65
2023-02-23T22:49:16.392Z,2.79
2023-02-23T22:59:22.070Z,2.93
2023-02-23T23:09:28.248Z,3.15
2023-02-23T23:19:39.077Z,3.34
2023-02-23T23:29:46.833Z,3.49
2023-02-23T23:39:59.349Z,3.53
2023-02-23T23:50:10.810Z,3.67
